Time;durP1;ratioP1;P1;durP2;ratioP2;P2;SDS_P1;SDS_P2;PMS_P1;PMS_P2;Temp;Humidity;BMP_temperature;BMP_pressure;BME280_temperature;BME280_humidity;BME280_pressure;Samples;Min_cycle;Max_cycle;Signal;HPM_P1;HPM_P2
2022/12/20 00:02:04;;;;;;;;;107.33;76.67;;;;;-3.20;100.00;101468.34;6315510;20;3684634;-56
2022/12/20 00:04:33;;;;;;;;;114.00;79.00;;;;;-3.22;100.00;101470.03;6283440;20;2806588;-56
2022/12/20 00:07:03;;;;;;;;;108.33;76.00;;;;;-3.10;100.00;101468.59;6285197;20;3679429;-56
2022/12/20 00:09:32;;;;;;;;;104.33;76.00;;;;;-2.96;100.00;101471.53;6313361;20;3675379;-55
2022/12/20 00:12:02;;;;;;;;;105.33;76.33;;;;;-2.94;100.00;101458.44;6314782;20;3675291;-55
2022/12/20 00:14:32;;;;;;;;;97.33;73.33;;;;;-3.07;100.00;101474.78;6315790;20;3655529;-53
2022/12/20 00:17:01;;;;;;;;;106.00;76.67;;;;;-3.19;100.00;101472.75;6312686;20;3680495;-55
2022/12/20 00:19:31;;;;;;;;;108.33;76.00;;;;;-3.05;100.00;101478.31;6278083;20;3684667;-54
2022/12/20 00:22:00;;;;;;;;;91.00;70.67;;;;;-3.19;100.00;101465.75;6279841;20;3654463;-54
2022/12/20 00:24:31;;;;;;;;;108.00;70.67;;;;;-3.26;100.00;101476.09;6314251;20;3684751;-56
2022/12/20 00:27:01;;;;;;;;;105.33;76.33;;;;;-3.04;100.00;101473.09;6312521;20;3683730;-56
2022/12/20 00:29:31;;;;;;;;;105.50;76.00;;;;;-2.89;100.00;101477.81;6279795;20;3542998;-56
2022/12/20 00:32:00;;;;;;;;;100.00;71.33;;;;;-2.85;100.00;101478.75;6313322;20;3670173;-53
2022/12/20 00:34:30;;;;;;;;;100.33;74.33;;;;;-2.65;100.00;101485.34;6316117;20;3665026;-56
2022/12/20 00:36:59;;;;;;;;;101.00;74.33;;;;;-2.65;100.00;101487.97;6314361;20;3674250;-56
2022/12/20 00:39:29;;;;;;;;;104.33;76.00;;;;;-2.59;100.00;101480.19;6314582;20;3675326;-57
2022/12/20 00:41:59;;;;;;;;;99.33;72.67;;;;;-2.74;100.00;101482.50;6312745;20;3654452;-52
2022/12/20 00:44:28;;;;;;;;;101.67;74.00;;;;;-2.59;100.00;101471.44;6313633;20;3678392;-54
2022/12/20 00:46:58;;;;;;;;;103.00;73.33;;;;;-2.66;100.00;101459.88;6313282;20;3686701;-54
2022/12/20 00:49:29;;;;;;;;;103.33;73.33;;;;;-2.82;100.00;101447.28;6314487;20;3693032;-52
2022/12/20 00:51:59;;;;;;;;;89.67;66.67;;;;;-2.81;100.00;101447.31;6278666;20;3645134;-54
2022/12/20 00:54:28;;;;;;;;;108.67;75.00;;;;;-2.87;100.00;101453.34;6313385;20;3685031;-54
2022/12/20 00:56:58;;;;;;;;;105.00;76.67;;;;;-2.79;100.00;101458.78;6276198;20;3672158;-55
2022/12/20 00:59:27;;;;;;;;;105.67;75.00;;;;;-2.79;100.00;101450.88;6281438;20;3672238;-52
2022/12/20 01:01:57;;;;;;;;;104.67;75.33;;;;;-2.84;100.00;101454.25;6314940;20;3681689;-54
2022/12/20 01:04:27;;;;;;;;;101.67;73.67;;;;;-2.63;100.00;101446.84;6315147;20;3662786;-55
2022/12/20 01:06:56;;;;;;;;;112.00;79.67;;;;;-2.57;100.00;101439.06;6315731;20;3690906;-55
2022/12/20 01:09:26;;;;;;;;;107.33;75.33;;;;;-2.48;100.00;101435.72;6280276;20;3684805;-56
2022/12/20 01:11:56;;;;;;;;;104.33;74.00;;;;;-2.53;100.00;101425.09;6282943;20;3674230;-55
2022/12/20 01:14:25;;;;;;;;;107.33;77.67;;;;;-2.74;100.00;101422.97;6314097;20;3677341;-56
2022/12/20 01:16:55;;;;;;;;;98.33;73.00;;;;;-2.60;100.00;101417.09;6314022;20;3662884;-56
2022/12/20 01:19:25;;;;;;;;;91.33;70.00;;;;;-2.83;100.00;101421.88;6311193;20;3648270;-55
2022/12/20 01:21:54;;;;;;;;;107.00;76.67;;;;;-2.95;100.00;101423.38;6316719;20;3672113;-54
2022/12/20 01:24:24;;;;;;;;;104.00;75.67;;;;;-2.66;100.00;101418.72;6316253;20;3674245;-54
2022/12/20 01:26:52;;;;;;;;;91.50;67.00;;;;;-2.66;100.00;101407.31;6310022;20;2500281;-53
2022/12/20 01:29:21;;;;;;;;;107.67;76.00;;;;;-2.74;100.00;101407.19;6281271;20;3665930;-55
2022/12/20 01:31:52;;;;;;;;;104.67;75.33;;;;;-2.64;100.00;101405.59;6315535;20;3675408;-56
2022/12/20 01:34:22;;;;;;;;;108.00;89.67;;;;;-2.70;100.00;101416.00;6311909;20;3668088;-54
2022/12/20 01:36:52;;;;;;;;;107.00;75.33;;;;;-2.66;100.00;101418.72;6280396;20;3679472;-55
2022/12/20 01:39:21;;;;;;;;;101.00;73.67;;;;;-2.45;100.00;101407.75;6282455;20;3677413;-53
2022/12/20 01:41:51;;;;;;;;;108.00;79.00;;;;;-2.48;100.00;101406.78;6312070;20;3680528;-55
2022/12/20 01:44:21;;;;;;;;;111.33;80.33;;;;;-2.35;100.00;101407.91;6280010;20;3689874;-52
2022/12/20 01:46:51;;;;;;;;;104.33;76.00;;;;;-2.46;100.00;101395.44;6313147;20;3677374;-54
2022/12/20 01:49:35;;;;;;;;;105.00;77.00;;;;;-2.77;100.00;101393.06;6313459;20;3677908;-55
2022/12/20 01:52:13;;;;;;;;;99.67;67.33;;;;;-2.30;100.00;101390.47;6311092;20;3660674;-54
2022/12/20 01:55:08;;;;;;;;;102.67;74.33;;;;;-2.36;100.00;101395.63;6311544;20;3668003;-55
2022/12/20 01:57:50;;;;;;;;;89.00;65.00;;;;;-2.42;100.00;101393.78;6304029;20;2500362;-52
2022/12/20 02:00:20;;;;;;;;;105.67;77.00;;;;;-2.37;100.00;101384.22;6280289;20;3670147;-55
2022/12/20 02:02:50;;;;;;;;;124.67;98.33;;;;;-2.29;100.00;101381.72;6314159;20;3732577;-55
2022/12/20 02:05:23;;;;;;;;;104.33;74.67;;;;;-2.25;100.00;101383.56;6276047;20;3675470;-55
2022/12/20 02:07:56;;;;;;;;;98.67;73.00;;;;;-2.39;100.00;101375.41;6311111;20;3667076;-55
2022/12/20 02:11:22;;;;;;;;;98.33;74.33;;;;;-2.28;100.00;101363.34;6309018;20;3662270;-55
2022/12/20 02:14:34;;;;;;;;;82.00;63.00;;;;;-2.51;100.00;101352.41;6311255;20;2885774;-53
2022/12/20 02:17:44;;;;;;;;;104.67;75.00;;;;;-2.49;100.00;101341.91;6279710;20;3677587;-57
2022/12/20 02:21:08;;;;;;;;;96.00;70.50;;;;;-2.45;100.00;101343.72;6273962;20;2900322;-56
2022/12/20 02:24:25;;;;;;;;;105.67;74.33;;;;;-2.10;100.00;101347.00;6279977;20;3678427;-52
2022/12/20 02:27:09;;;;;;;;;106.67;75.00;;;;;-2.22;100.00;101337.13;6312632;20;3671094;-54
2022/12/20 02:30:16;;;;;;;;;99.33;73.67;;;;;-2.32;100.00;101334.31;6277886;20;2901407;-56
2022/12/20 02:33:10;;;;;;;;;102.33;73.67;;;;;-2.28;100.00;101330.91;6310622;20;3672165;-56
2022/12/20 02:35:41;;;;;;;;;106.67;75.67;;;;;-2.12;100.00;101327.66;6309819;20;3673165;-52
2022/12/20 02:38:37;;;;;;;;;103.67;75.33;;;;;-1.89;100.00;101324.53;6309226;20;3679537;-54
2022/12/20 02:41:36;;;;;;;;;97.33;75.00;;;;;-2.15;100.00;101321.47;6279114;20;2893127;-55
2022/12/20 02:47:08;;;;;;;;;107.67;73.00;;;;;-2.17;100.00;101313.53;6277324;20;3683762;-53
2022/12/20 02:49:41;;;;;;;;;92.33;73.33;;;;;-2.33;100.00;101311.50;6273670;20;3643997;-53
2022/12/20 02:52:13;;;;;;;;;103.00;72.33;;;;;-2.26;100.00;101318.66;6310641;20;3675288;-54
2022/12/20 02:54:43;;;;;;;;;97.00;72.00;;;;;-1.85;100.00;101323.69;6273976;20;3656510;-54
2022/12/20 02:57:56;;;;;;;;;98.33;71.67;;;;;-1.76;100.00;101321.22;6307156;20;3659650;-54
2022/12/20 03:00:39;;;;;;;;;98.33;74.67;;;;;-2.08;100.00;101325.94;6308096;20;3654597;-55
2022/12/20 03:03:22;;;;;;;;;97.33;72.00;;;;;-1.90;100.00;101328.00;6307224;20;3658700;-55
2022/12/20 03:05:55;;;;;;;;;101.67;72.33;;;;;-2.05;100.00;101332.16;6308204;20;3674326;-55
2022/12/20 03:08:25;;;;;;;;;89.33;69.67;;;;;-1.78;100.00;101330.81;6277234;20;2882573;-55
2022/12/20 03:10:55;;;;;;;;;97.67;72.33;;;;;-2.25;100.00;101334.44;6309985;20;3650249;-53
2022/12/20 03:13:25;;;;;;;;;96.00;69.00;;;;;-2.13;100.00;101332.88;6312658;20;2892074;-55
2022/12/20 03:15:55;;;;;;;;;94.33;69.33;;;;;-1.93;100.00;101339.34;6315957;20;3642960;-55
2022/12/20 03:18:24;;;;;;;;;102.00;76.00;;;;;-1.74;100.00;101339.66;6317831;20;3681526;-57
2022/12/20 03:20:54;;;;;;;;;99.33;71.00;;;;;-1.52;100.00;101341.75;6282174;20;3654452;-55
2022/12/20 03:23:24;;;;;;;;;101.00;73.00;;;;;-1.57;100.00;101335.53;6317601;20;3663827;-56
2022/12/20 03:25:53;;;;;;;;;97.00;69.67;;;;;-1.72;100.00;101328.28;6282655;20;3654487;-55
2022/12/20 03:28:23;;;;;;;;;107.67;74.67;;;;;-1.61;100.00;101321.41;6315216;20;3678400;-55
2022/12/20 03:30:52;;;;;;;;;95.00;68.67;;;;;-1.67;100.00;101313.44;6283484;20;3636735;-55
2022/12/20 03:33:22;;;;;;;;;91.67;69.00;;;;;-1.94;100.00;101299.88;6316243;20;2882680;-55
2022/12/20 03:35:52;;;;;;;;;100.00;72.33;;;;;-1.63;100.00;101295.94;6316480;20;3670120;-54
2022/12/20 03:38:21;;;;;;;;;101.67;70.67;;;;;-1.66;100.00;101281.00;6284281;20;3671082;-53
2022/12/20 03:40:51;;;;;;;;;100.00;74.00;;;;;-1.79;100.00;101276.38;6316493;20;3665975;-51
2022/12/20 03:43:20;;;;;;;;;109.00;81.33;;;;;-1.73;100.00;101276.50;6315296;20;3693014;-54
2022/12/20 03:45:50;;;;;;;;;104.67;73.33;;;;;-1.72;100.00;101269.47;6284764;20;3675237;-56
2022/12/20 03:48:20;;;;;;;;;102.00;71.00;;;;;-1.58;100.00;101268.81;6279919;20;3669137;-54
2022/12/20 03:50:49;;;;;;;;;99.00;73.67;;;;;-1.57;100.00;101261.78;6314888;20;3672127;-56
2022/12/20 03:53:19;;;;;;;;;100.33;75.00;;;;;-1.58;100.00;101258.28;6313882;20;3664866;-54
2022/12/20 03:55:48;;;;;;;;;98.00;71.33;;;;;-1.35;100.00;101261.19;6280132;20;3643055;-56
2022/12/20 03:58:18;;;;;;;;;95.33;72.33;;;;;-1.52;100.00;101261.84;6314800;20;3652424;-54
2022/12/20 04:00:47;;;;;;;;;94.00;70.00;;;;;-1.47;100.00;101254.91;6314706;20;2888014;-55
2022/12/20 04:03:17;;;;;;;;;108.00;76.33;;;;;-1.53;100.00;101260.06;6313793;20;3672221;-55
2022/12/20 04:05:47;;;;;;;;;94.00;71.67;;;;;-1.36;100.00;101250.66;6282467;20;3640887;-53
2022/12/20 04:08:17;;;;;;;;;109.67;77.67;;;;;-1.65;100.00;101259.06;6316607;20;3682665;-54
2022/12/20 04:13:34;;;;;;;;;107.67;77.00;;;;;-1.46;100.00;101252.28;6317004;20;3676342;-54
2022/12/20 04:16:05;;;;;;;;;141.50;119.25;;;;;-1.59;100.00;101267.03;6313769;20;3728581;-53
2022/12/20 04:18:35;;;;;;;;;104.67;74.33;;;;;-1.58;100.00;101263.53;6282404;20;3688845;-54
2022/12/20 04:21:06;;;;;;;;;91.00;68.67;;;;;-1.66;100.00;101269.56;6284659;20;3648330;-53
2022/12/20 04:23:39;;;;;;;;;151.50;119.75;;;;;-1.67;100.00;101271.31;6317270;20;3720159;-56
2022/12/20 04:26:10;;;;;;;;;229.00;189.00;;;;;-1.74;100.00;101274.72;6281427;20;4463872;-55
2022/12/20 04:28:40;;;;;;;;;143.33;121.67;;;;;-1.83;100.00;101274.59;6315970;20;3728405;-55
2022/12/20 04:31:10;;;;;;;;;111.67;92.33;;;;;-1.72;100.00;101272.97;6281420;20;3694103;-55
2022/12/20 04:33:40;;;;;;;;;104.33;74.67;;;;;-1.65;100.00;101279.25;6283676;20;3671088;-56
2022/12/20 04:36:10;;;;;;;;;98.33;72.00;;;;;-1.59;100.00;101267.03;6281166;20;3650294;-54
2022/12/20 04:38:40;;;;;;;;;100.67;75.00;;;;;-1.65;100.00;101271.34;6315586;20;3679390;-55
2022/12/20 04:41:20;;;;;;;;;100.67;74.33;;;;;-1.59;100.00;101261.75;6279067;20;3659624;-56
2022/12/20 04:43:56;;;;;;;;;105.33;83.33;;;;;-1.92;100.00;101245.47;6313322;20;3687766;-54
2022/12/20 04:46:26;;;;;;;;;96.00;70.67;;;;;-1.70;100.00;101251.97;6279699;20;3653486;-52
2022/12/20 04:48:56;;;;;;;;;105.33;72.33;;;;;-1.89;100.00;101249.06;6312111;20;3682538;-53
2022/12/20 04:51:28;;;;;;;;;102.33;72.67;;;;;-1.65;100.00;101237.09;6275528;20;3678392;-52
2022/12/20 04:53:58;;;;;;;;;93.67;67.33;;;;;-1.68;100.00;101242.34;6311613;20;3661764;-55
2022/12/20 04:56:28;;;;;;;;;114.67;88.00;;;;;-1.69;100.00;101244.06;6309813;20;3698272;-52
2022/12/20 04:58:58;;;;;;;;;108.00;87.33;;;;;-1.84;100.00;101235.97;6281232;20;3677450;-54
2022/12/20 05:01:28;;;;;;;;;116.33;88.67;;;;;-1.72;100.00;101228.22;6279938;20;3703457;-56
2022/12/20 05:03:58;;;;;;;;;110.00;85.50;;;;;-1.71;100.00;101229.09;6281401;20;3553848;-56
2022/12/20 05:06:27;;;;;;;;;84.67;63.67;;;;;-1.50;100.00;101221.50;6315362;20;3640865;-56
2022/12/20 05:08:57;;;;;;;;;97.67;70.67;;;;;-1.68;100.00;101214.25;6316519;20;3656601;-53
2022/12/20 05:11:27;;;;;;;;;109.33;79.33;;;;;-1.64;100.00;101221.31;6312349;20;3689874;-55
2022/12/20 05:13:56;;;;;;;;;101.67;73.67;;;;;-1.94;100.00;101232.31;6279139;20;3677326;-54
2022/12/20 05:16:26;;;;;;;;;99.67;69.67;;;;;-1.79;100.00;101240.44;6276207;20;3669016;-55
2022/12/20 05:18:55;;;;;;;;;94.00;68.00;;;;;-1.79;100.00;101244.78;6313515;20;3654468;-56
2022/12/20 05:27:01;;;;;;;;;95.67;71.00;;;;;-1.29;100.00;101265.66;6312912;20;3646222;-54
2022/12/20 05:29:31;;;;;;;;;99.33;69.00;;;;;-1.33;100.00;101269.13;6310305;20;3640961;-55
2022/12/20 05:32:01;;;;;;;;;96.33;71.33;;;;;-1.49;100.00;101268.03;6310126;20;3646104;-55
2022/12/20 05:34:30;;;;;;;;;93.00;66.67;;;;;-1.34;100.00;101267.38;6311255;20;3661700;-56
2022/12/20 05:37:00;;;;;;;;;85.00;61.00;;;;;-1.07;100.00;101265.91;6312871;20;2895199;-55
2022/12/20 05:39:29;;;;;;;;;94.33;66.00;;;;;-1.36;100.00;101263.81;6311310;20;3630718;-57
2022/12/20 05:42:00;;;;;;;;;95.00;70.33;;;;;-1.31;100.00;101262.13;6313648;20;3660755;-55
2022/12/20 05:44:30;;;;;;;;;99.33;71.33;;;;;-1.35;100.00;101265.56;6313981;20;3655466;-56
2022/12/20 05:46:59;;;;;;;;;93.67;67.33;;;;;-1.27;100.00;101269.19;6313164;20;3644008;-55
2022/12/20 05:49:29;;;;;;;;;97.67;72.33;;;;;-1.14;100.00;101260.56;6312813;20;3670211;-55
2022/12/20 05:52:00;;;;;;;;;102.67;77.33;;;;;-1.23;100.00;101254.31;6275804;20;3682563;-54
2022/12/20 05:54:30;;;;;;;;;105.67;77.67;;;;;-1.18;100.00;101258.78;6276434;20;3681656;-55
2022/12/20 05:57:00;;;;;;;;;107.33;80.00;;;;;-1.23;100.00;101276.28;6273363;20;3681559;-56
2022/12/20 05:59:29;;;;;;;;;103.33;79.33;;;;;-1.52;100.00;101275.03;6279094;20;3696249;-55
2022/12/20 06:01:59;;;;;;;;;107.00;82.67;;;;;-1.37;100.00;101275.19;6271673;20;3691919;-56
2022/12/20 06:04:32;;;;;;;;;104.00;74.67;;;;;-1.24;100.00;101269.22;6276004;20;3681619;-56
2022/12/20 06:07:01;;;;;;;;;97.67;73.33;;;;;-1.25;100.00;101261.31;6278543;20;3645077;-55
2022/12/20 06:09:32;;;;;;;;;102.00;71.67;;;;;-1.26;100.00;101249.91;6310568;20;3673307;-54
2022/12/20 06:12:01;;;;;;;;;96.67;65.67;;;;;-1.30;100.00;101258.63;6277120;20;3660682;-56
2022/12/20 06:14:31;;;;;;;;;104.33;77.33;;;;;-1.32;100.00;101257.69;6311064;20;3670131;-56
2022/12/20 06:17:01;;;;;;;;;111.00;85.33;;;;;-1.44;100.00;101247.03;6277441;20;3694012;-55
2022/12/20 06:19:31;;;;;;;;;106.33;80.00;;;;;-1.27;100.00;101250.75;6277178;20;3674338;-56
2022/12/20 06:22:00;;;;;;;;;107.00;83.33;;;;;-1.29;100.00;101254.22;6277646;20;3684677;-54
2022/12/20 06:24:30;;;;;;;;;115.00;93.00;;;;;-1.45;100.00;101253.16;6276335;20;3697270;-56
2022/12/20 06:27:01;;;;;;;;;111.67;87.67;;;;;-1.44;100.00;101258.44;6277761;20;3697213;-56
2022/12/20 06:29:30;;;;;;;;;119.00;103.00;;;;;-1.27;100.00;101242.84;6277995;20;3686704;-56
2022/12/20 06:32:00;;;;;;;;;122.67;96.33;;;;;-1.14;100.00;101239.47;6275417;20;3705539;-55
2022/12/20 06:34:31;;;;;;;;;112.33;88.33;;;;;-1.62;100.00;101240.66;6276156;20;3685660;-54
2022/12/20 06:37:01;;;;;;;;;99.67;75.67;;;;;-1.71;100.00;101240.53;6264191;20;3666004;-53
2022/12/20 06:39:30;;;;;;;;;118.33;87.67;;;;;-1.64;100.00;101231.84;6273836;20;3700247;-56
2022/12/20 06:42:00;;;;;;;;;99.67;73.67;;;;;-1.56;100.00;101217.03;6276190;20;3666917;-56
2022/12/20 06:44:30;;;;;;;;;110.33;82.00;;;;;-1.57;100.00;101222.28;6275214;20;3686754;-54
2022/12/20 06:47:00;;;;;;;;;99.33;73.67;;;;;-1.63;100.00;101202.03;6271093;20;3665954;-53
2022/12/20 06:49:29;;;;;;;;;108.00;82.33;;;;;-1.78;100.00;101218.50;6305383;20;3677370;-56
2022/12/20 06:51:59;;;;;;;;;101.67;74.33;;;;;-1.71;100.00;101219.47;6274587;20;3673273;-54
2022/12/20 06:54:29;;;;;;;;;101.67;75.67;;;;;-1.46;100.00;101214.50;6274434;20;3674218;-54
2022/12/20 06:56:58;;;;;;;;;97.00;78.00;;;;;-1.56;100.00;101214.38;6308630;20;2887800;-56
2022/12/20 06:59:28;;;;;;;;;99.67;73.00;;;;;-1.47;100.00;101202.22;6309736;20;3670040;-56
2022/12/20 07:01:58;;;;;;;;;108.00;77.33;;;;;-1.49;100.00;101194.28;6278299;20;3685663;-52
2022/12/20 07:04:27;;;;;;;;;90.67;71.67;;;;;-1.29;100.00;101201.53;6279224;20;2879472;-54
2022/12/20 07:06:57;;;;;;;;;96.67;73.67;;;;;-1.41;100.00;101202.28;6310938;20;3648302;-56
2022/12/20 07:09:27;;;;;;;;;95.67;72.00;;;;;-1.29;100.00;101206.78;6310819;20;3651363;-54
2022/12/20 07:11:57;;;;;;;;;92.00;67.33;;;;;-1.25;100.00;101208.63;6305363;20;3667049;-55
2022/12/20 07:14:27;;;;;;;;;99.00;70.00;;;;;-1.43;100.00;101196.09;6305186;20;3652543;-56
2022/12/20 07:16:56;;;;;;;;;94.33;69.00;;;;;-1.14;100.00;101186.75;6305666;20;3650782;-57
2022/12/20 07:19:26;;;;;;;;;97.33;70.33;;;;;-0.91;100.00;101183.50;6309076;20;3651409;-55
2022/12/20 07:21:56;;;;;;;;;93.00;66.67;;;;;-0.90;100.00;101174.69;6307972;20;3648232;-56
2022/12/20 07:24:25;;;;;;;;;86.67;61.67;;;;;-0.90;100.00;101177.34;6309336;20;3655493;-56
2022/12/20 07:26:55;;;;;;;;;88.00;65.67;;;;;-0.75;100.00;101168.69;6308038;20;3654609;-55
2022/12/20 07:29:25;;;;;;;;;98.33;67.67;;;;;-0.82;100.00;101162.47;6308616;20;3672159;-54
2022/12/20 07:31:54;;;;;;;;;88.00;70.00;;;;;-0.65;100.00;101174.94;6307936;20;2878545;-55
2022/12/20 07:34:24;;;;;;;;;96.67;66.00;;;;;-0.58;100.00;101171.44;6308385;20;3643007;-55
2022/12/20 07:36:54;;;;;;;;;103.00;76.00;;;;;-0.61;100.00;101167.03;6311080;20;3668074;-54
2022/12/20 07:39:24;;;;;;;;;87.00;68.00;;;;;-0.28;100.00;101174.31;6275024;20;3632554;-55
2022/12/20 07:41:54;;;;;;;;;96.33;69.67;;;;;-0.29;100.00;101169.94;6309788;20;3659642;-55
2022/12/20 07:44:24;;;;;;;;;93.00;71.00;;;;;-0.28;99.69;101181.34;6309111;20;3640911;-55
2022/12/20 07:46:54;;;;;;;;;101.33;72.33;;;;;0.15;100.00;101190.41;6305850;20;3674318;-56
2022/12/20 07:49:23;;;;;;;;;96.00;63.00;;;;;-0.08;99.49;101189.38;6278099;20;3659667;-57
2022/12/20 07:51:58;;;;;;;;;104.33;82.00;;;;;-0.20;98.93;101184.06;6309237;20;3683568;-55
2022/12/20 07:54:39;;;;;;;;;31.67;30.00;;;;;0.01;99.57;101189.47;6276436;20;2836861;-53
2022/12/20 07:57:27;;;;;;;;;83.67;63.00;;;;;0.17;98.51;101196.59;6303406;20;2900494;-56
2022/12/20 08:00:00;;;;;;;;;78.00;60.33;;;;;0.03;97.83;101187.72;6312620;20;2890735;-55
2022/12/20 08:03:20;;;;;;;;;75.00;56.33;;;;;-0.01;97.67;101185.91;6312981;20;2897788;-57
2022/12/20 08:05:55;;;;;;;;;111.75;93.50;;;;;0.02;97.44;101196.50;6312041;20;4462723;-54
2022/12/20 08:08:26;;;;;;;;;92.00;71.00;;;;;0.15;97.46;101195.69;6281828;20;3648220;-56
2022/12/20 08:10:56;;;;;;;;;136.25;111.00;;;;;0.11;97.05;101193.03;6313561;20;4491965;-55
2022/12/20 08:13:26;;;;;;;;;77.33;56.33;;;;;-0.06;97.77;101172.69;6283160;20;2889093;-55
2022/12/20 08:15:54;;;;;;;;;60.50;43.50;;;;;-0.09;97.68;101161.25;6313330;20;2828450;-56
2022/12/20 08:18:21;;;;;;;;;74.50;59.00;;;;;0.05;96.55;101159.53;6274800;20;2500281;-53
2022/12/20 08:20:51;;;;;;;;;70.50;51.50;;;;;0.15;95.71;101166.63;6283308;20;2889891;-54
2022/12/20 08:23:20;;;;;;;;;71.00;52.50;;;;;0.22;96.67;101165.78;6314341;20;2864899;-54
2022/12/20 08:25:49;;;;;;;;;73.67;57.67;;;;;0.33;95.71;101170.25;6280309;20;2872102;-56
2022/12/20 08:28:19;;;;;;;;;80.00;59.33;;;;;0.50;95.00;101183.50;6317128;20;2887807;-55
2022/12/20 08:30:47;;;;;;;;;68.50;52.00;;;;;0.50;94.83;101188.78;6311293;20;2500319;-56
2022/12/20 08:33:16;;;;;;;;;64.50;50.50;;;;;0.70;95.00;101191.53;6280237;20;2862963;-55
2022/12/20 08:35:44;;;;;;;;;64.00;53.00;;;;;0.67;93.16;101188.88;6280038;20;2500376;-56
2022/12/20 08:38:13;;;;;;;;;75.33;58.00;;;;;0.79;93.12;101176.56;6281184;20;2890011;-54
2022/12/20 08:40:42;;;;;;;;;61.50;48.00;;;;;0.56;93.41;101179.16;6315948;20;2864883;-55
2022/12/20 08:43:11;;;;;;;;;72.33;58.33;;;;;0.76;93.08;101186.25;6283667;20;2867987;-55
2022/12/20 08:45:41;;;;;;;;;76.00;51.67;;;;;0.58;92.82;101180.03;6313166;20;3634664;-55
2022/12/20 08:48:11;;;;;;;;;84.67;63.67;;;;;0.78;93.68;101163.34;6315313;20;3653377;-51
2022/12/20 08:50:40;;;;;;;;;70.67;53.00;;;;;0.85;93.26;101165.13;6315883;20;2880468;-56
2022/12/20 08:53:10;;;;;;;;;87.33;66.67;;;;;0.44;93.09;101152.66;6310338;20;2886866;-57
2022/12/20 08:55:39;;;;;;;;;63.00;47.00;;;;;0.31;93.14;101148.22;6310358;20;2867059;-56
2022/12/20 08:58:08;;;;;;;;;66.33;45.33;;;;;0.29;93.92;101144.69;6282529;20;2885973;-57
2022/12/20 09:00:37;;;;;;;;;67.50;54.50;;;;;0.49;94.29;101132.44;6311136;20;2860095;-56
2022/12/20 09:03:07;;;;;;;;;62.50;47.00;;;;;0.38;94.17;101132.41;6283136;20;2869076;-56
2022/12/20 09:05:44;;;;;;;;;73.67;55.33;;;;;0.41;93.23;101126.25;6285018;20;2894544;-57
2022/12/20 09:08:15;;;;;;;;;91.00;68.67;;;;;0.46;93.16;101124.50;6316150;20;3646205;-54
2022/12/20 09:10:45;;;;;;;;;61.67;44.67;;;;;0.39;92.92;101130.63;6311155;20;2903357;-55
2022/12/20 09:13:14;;;;;;;;;74.67;57.00;;;;;0.29;93.49;101134.13;6308979;20;2892048;-55
2022/12/20 09:15:44;;;;;;;;;74.00;52.67;;;;;0.40;93.79;101135.06;6312952;20;2891067;-56
2022/12/20 09:18:14;;;;;;;;;84.33;60.33;;;;;0.49;93.57;101124.50;6313158;20;3651426;-55
2022/12/20 09:20:46;;;;;;;;;104.33;77.67;;;;;0.56;93.08;101126.28;6312597;20;3690886;-57
2022/12/20 09:23:16;;;;;;;;;70.33;55.00;;;;;0.36;93.98;101122.72;6314066;20;3634657;-56
2022/12/20 09:25:45;;;;;;;;;78.00;59.50;;;;;0.45;93.62;101128.03;6312406;20;2885759;-57
2022/12/20 09:28:23;;;;;;;;;84.00;60.00;;;;;0.53;93.14;101130.69;6313770;20;3663781;-56
2022/12/20 09:30:51;;;;;;;;;65.00;50.50;;;;;0.58;93.03;101123.63;6305606;20;2868144;-55
2022/12/20 09:33:20;;;;;;;;;71.00;51.50;;;;;0.67;93.43;101120.16;6275092;20;2889858;-56
2022/12/20 09:35:50;;;;;;;;;75.33;56.33;;;;;1.10;91.69;101126.34;6282036;20;3646106;-53
2022/12/20 09:38:19;;;;;;;;;93.33;70.33;;;;;1.63;90.38;101129.84;6315020;20;3653384;-55
2022/12/20 09:40:55;;;;;;;;;56.50;42.00;;;;;1.47;89.66;101123.69;6281449;20;2866017;-55
2022/12/20 09:43:25;;;;;;;;;79.00;60.33;;;;;1.79;89.64;101115.72;6281952;20;3637785;-57
2022/12/20 09:46:01;;;;;;;;;53.50;44.00;;;;;1.61;88.91;101116.63;6311142;20;2848191;-54
2022/12/20 09:48:39;;;;;;;;;68.33;48.33;;;;;1.44;88.33;101118.41;6282248;20;3633587;-57
2022/12/20 09:51:51;;;;;;;;;72.33;53.67;;;;;1.73;88.31;101132.47;6312912;20;3638162;-56
2022/12/20 09:55:01;;;;;;;;;64.00;48.50;;;;;1.90;85.86;101118.34;6311131;20;2873639;-54
2022/12/20 09:58:33;;;;;;;;;55.50;45.50;;;;;2.03;86.63;101109.47;6281148;20;2855517;-57
2022/12/20 10:01:21;;;;;;;;;49.00;38.50;;;;;2.04;86.88;101107.69;6278184;20;2876350;-56
2022/12/20 10:03:56;;;;;;;;;43.00;33.50;;;;;2.13;85.40;101099.69;6279477;20;2867061;-57
2022/12/20 10:07:17;;;;;;;;;60.00;47.00;;;;;2.09;85.81;101101.47;6282614;20;2860874;-55
2022/12/20 10:10:04;;;;;;;;;97.33;74.67;;;;;2.18;85.21;101097.91;6278127;20;3674203;-50
2022/12/20 10:13:05;;;;;;;;;70.00;51.33;;;;;2.26;86.07;101077.53;6312106;20;3637759;-57
2022/12/20 10:15:50;;;;;;;;;76.33;56.67;;;;;2.28;85.99;101081.06;6308806;20;3644075;-55
2022/12/20 10:19:12;;;;;;;;;60.33;42.67;;;;;1.93;85.76;101079.47;6309567;20;3636704;-55
2022/12/20 10:22:36;;;;;;;;;42.50;36.00;;;;;1.96;85.54;101076.81;6309736;20;2866000;-57
2022/12/20 10:25:21;;;;;;;;;38.00;26.50;;;;;1.97;86.18;101073.28;6280880;20;2867051;-55
2022/12/20 10:27:53;;;;;;;;;64.00;51.00;;;;;2.21;85.85;101076.69;6279843;20;2496148;-53
2022/12/20 10:30:31;;;;;;;;;59.50;46.00;;;;;2.24;85.20;101062.53;6274931;20;2860702;-57
2022/12/20 10:33:01;;;;;;;;;65.33;48.67;;;;;2.56;84.19;101054.41;6280676;20;3623222;-55
2022/12/20 10:35:39;;;;;;;;;63.00;44.33;;;;;2.88;84.44;101040.91;6309244;20;2872169;-56
2022/12/20 10:38:13;;;;;;;;;52.00;42.67;;;;;2.24;83.74;101049.28;6312631;20;2873372;-57
2022/12/20 10:41:02;;;;;;;;;50.00;38.50;;;;;2.23;84.69;101042.25;6308556;20;2865924;-55
2022/12/20 10:44:15;;;;;;;;;59.67;45.33;;;;;2.59;83.09;101026.09;6279208;20;2873419;-54
2022/12/20 10:46:59;;;;;;;;;59.50;46.00;;;;;2.58;83.30;101034.06;6309942;20;3490009;-57
2022/12/20 10:49:41;;;;;;;;;59.00;43.50;;;;;2.66;82.82;101019.00;6304275;20;2850424;-57
2022/12/20 10:52:14;;;;;;;;;52.50;43.00;;;;;2.75;81.73;101024.22;6275597;20;2858729;-57
2022/12/20 10:54:47;;;;;;;;;50.33;39.33;;;;;2.44;82.15;101014.72;6278576;20;2869150;-56
2022/12/20 10:57:28;;;;;;;;;56.00;39.67;;;;;2.34;82.65;101009.50;6305385;20;3620080;-55
2022/12/20 11:00:07;;;;;;;;;50.50;42.00;;;;;2.65;81.66;101003.97;6306595;20;2849319;-54
2022/12/20 11:02:40;;;;;;;;;62.33;43.00;;;;;2.65;81.71;100982.75;6278401;20;2876370;-56
2022/12/20 11:05:13;;;;;;;;;57.33;44.00;;;;;2.79;81.58;100972.00;6310106;20;2862941;-55
2022/12/20 11:08:23;;;;;;;;;57.00;43.33;;;;;2.74;81.72;100976.47;6311035;20;2857552;-55
2022/12/20 11:11:23;;;;;;;;;56.00;42.00;;;;;3.05;80.72;100977.06;6307752;20;2854496;-55
2022/12/20 11:13:52;;;;;;;;;59.00;42.00;;;;;2.86;80.82;100977.25;6275871;20;3622217;-55
2022/12/20 11:16:43;;;;;;;;;60.00;46.00;;;;;3.59;80.98;100973.84;6307796;20;2870104;-55
2022/12/20 11:19:45;;;;;;;;;52.00;39.00;;;;;3.84;80.00;100971.75;6304317;20;2492981;-56
2022/12/20 11:22:45;;;;;;;;;61.00;48.50;;;;;3.91;77.84;100973.44;6276342;20;2866946;-57
2022/12/20 11:25:55;;;;;;;;;57.00;43.00;;;;;3.99;78.52;100994.59;6279927;20;2865937;-56
2022/12/20 11:28:36;;;;;;;;;32.00;26.00;;;;;3.73;77.20;100970.09;6276966;20;2735746;-50
2022/12/20 11:31:42;;;;;;;;;47.50;41.50;;;;;3.11;79.73;100961.13;6308175;20;2508610;-57
2022/12/20 11:34:48;;;;;;;;;46.00;40.00;;;;;3.20;78.99;100968.09;6273013;20;2508620;-57